createdAt,value
2023-04-09T00:30:04.893Z,11.30
2023-04-09T00:40:06.989Z,10.57
2023-04-09T00:50:08.968Z,10.60
2023-04-09T00:55:05.787Z,10.30
2023-04-09T00:59:57.620Z,10.43
2023-04-09T01:04:52.490Z,10.70
2023-04-09T01:09:57.461Z,11.70
2023-04-09T01:15:19.048Z,13.20
2023-04-09T01:26:08.060Z,12.03
2023-04-09T01:36:14.661Z,12.73
2023-04-09T01:41:08.760Z,12.53
2023-04-09T01:51:09.396Z,11.70
2023-04-09T01:56:03.560Z,11.97
2023-04-09T02:01:13.519Z,12.47
2023-04-09T02:11:38.164Z,11.13
2023-04-09T02:16:32.636Z,10.73
2023-04-09T02:21:24.378Z,9.73
2023-04-09T02:26:16.175Z,11.33
2023-04-09T02:31:08.133Z,11.03
2023-04-09T02:35:59.851Z,11.23
2023-04-09T02:40:51.578Z,11.00
2023-04-09T02:45:43.253Z,11.37
2023-04-09T02:50:35.017Z,11.30
2023-04-09T02:55:26.830Z,11.80
2023-04-09T03:00:18.503Z,11.43
2023-04-09T03:05:10.445Z,11.63
2023-04-09T03:10:02.115Z,12.93
2023-04-09T03:14:53.915Z,10.93
2023-04-09T03:19:45.634Z,11.97
2023-04-09T03:24:37.390Z,11.97
2023-04-09T03:29:29.052Z,12.00
2023-04-09T03:34:20.910Z,12.53
2023-04-09T03:39:12.578Z,11.87
2023-04-09T03:44:04.369Z,11.83
2023-04-09T03:48:56.039Z,12.43
2023-04-09T03:53:47.713Z,12.47
2023-04-09T03:58:39.382Z,11.63
2023-04-09T04:03:31.785Z,13.07
2023-04-09T04:08:23.607Z,12.30
2023-04-09T04:13:15.318Z,12.67
2023-04-09T04:18:07.033Z,12.30
2023-04-09T04:22:58.939Z,11.87
2023-04-09T04:27:51.840Z,12.13
2023-04-09T04:32:43.971Z,11.57
2023-04-09T04:37:35.852Z,12.07
2023-04-09T04:42:27.549Z,11.93
2023-04-09T04:47:23.059Z,11.77
2023-04-09T04:52:17.883Z,13.80
2023-04-09T04:57:10.454Z,14.27
2023-04-09T05:02:02.588Z,13.17
2023-04-09T05:06:55.272Z,14.17
2023-04-09T05:11:46.995Z,14.57
2023-04-09T05:16:38.919Z,14.67
2023-04-09T05:21:31.835Z,14.77
2023-04-09T05:26:23.826Z,13.50
2023-04-09T05:31:16.136Z,12.97
2023-04-09T05:36:08.687Z,11.67
2023-04-09T05:41:04.302Z,11.37
2023-04-09T05:51:01.665Z,11.10
2023-04-09T05:55:53.365Z,10.87
2023-04-09T06:00:45.633Z,11.27
2023-04-09T06:05:37.800Z,12.50
2023-04-09T06:10:32.018Z,11.47
2023-04-09T06:15:24.405Z,12.00
2023-04-09T06:20:19.890Z,10.90
2023-04-09T06:25:12.215Z,10.77
2023-04-09T06:30:04.941Z,10.83
2023-04-09T06:34:57.550Z,11.53
2023-04-09T06:40:00.678Z,11.27
2023-04-09T06:44:53.914Z,11.07
2023-04-09T06:49:46.456Z,10.80
2023-04-09T06:59:46.330Z,10.90
2023-04-09T07:14:52.165Z,11.33
2023-04-09T07:19:44.235Z,11.30
2023-04-09T07:24:36.228Z,11.97
2023-04-09T07:29:28.612Z,12.03
2023-04-09T07:34:24.850Z,12.63
2023-04-09T07:39:20.265Z,13.37
2023-04-09T07:44:16.650Z,13.27
2023-04-09T07:49:09.141Z,13.53
2023-04-09T07:54:01.233Z,11.83
2023-04-09T07:58:54.755Z,11.87
2023-04-09T08:03:46.749Z,11.47
2023-04-09T08:08:38.750Z,12.43
2023-04-09T08:13:30.667Z,12.03
2023-04-09T08:18:22.696Z,12.13
2023-04-09T08:23:14.377Z,11.80
2023-04-09T08:28:17.154Z,12.10
2023-04-09T08:33:10.894Z,11.30
2023-04-09T08:38:04.513Z,11.60
2023-04-09T08:48:09.792Z,11.53
2023-04-09T08:53:07.969Z,12.27
2023-04-09T08:57:59.673Z,11.97
2023-04-09T09:03:15.303Z,11.30
2023-04-09T09:08:21.793Z,11.60
2023-04-09T09:13:28.014Z,11.77
2023-04-09T09:18:19.785Z,11.20
2023-04-09T09:23:11.526Z,11.40
2023-04-09T09:28:10.259Z,11.33
2023-04-09T09:33:06.287Z,10.63
2023-04-09T09:38:04.488Z,10.57
2023-04-09T09:42:57.726Z,10.50
2023-04-09T09:47:50.437Z,10.83
2023-04-09T09:52:46.108Z,10.70
2023-04-09T09:57:44.056Z,10.20
2023-04-09T10:02:47.980Z,10.53
2023-04-09T10:07:40.972Z,10.43
2023-04-09T10:12:34.027Z,11.17
2023-04-09T10:17:26.380Z,10.07
2023-04-09T10:22:26.040Z,9.30
2023-04-09T10:27:18.239Z,9.50
2023-04-09T10:32:11.510Z,9.60
2023-04-09T10:37:03.882Z,10.25
2023-04-09T10:41:58.053Z,9.43
2023-04-09T10:46:57.638Z,8.70
2023-04-09T10:52:12.003Z,8.40
2023-04-09T10:57:21.425Z,8.77
2023-04-09T11:02:59.342Z,8.40
2023-04-09T11:08:10.657Z,8.63
2023-04-09T11:13:03.221Z,7.70
2023-04-09T11:17:55.634Z,9.00
2023-04-09T11:22:50.662Z,8.63
2023-04-09T11:27:46.905Z,8.10
2023-04-09T11:32:38.859Z,7.73
2023-04-09T11:37:30.834Z,7.63
2023-04-09T11:42:22.552Z,6.97
2023-04-09T11:47:17.172Z,7.00
2023-04-09T11:52:09.368Z,6.53
2023-04-09T11:57:03.740Z,6.23
2023-04-09T12:01:58.579Z,6.73
2023-04-09T12:06:50.717Z,6.57
2023-04-09T12:11:48.259Z,5.90
2023-04-09T12:16:44.547Z,6.83
2023-04-09T12:22:08.719Z,4.90
2023-04-09T12:27:01.491Z,4.33
2023-04-09T12:31:53.982Z,4.20
2023-04-09T12:36:45.754Z,4.30
2023-04-09T12:41:37.590Z,3.50
2023-04-09T12:46:29.426Z,3.70
2023-04-09T12:51:21.255Z,3.40
2023-04-09T12:56:13.113Z,3.30
2023-04-09T13:01:05.279Z,3.17
2023-04-09T13:05:57.427Z,3.30
2023-04-09T13:10:49.570Z,2.73
2023-04-09T13:15:46.159Z,2.90
2023-04-09T13:20:37.865Z,2.70
2023-04-09T13:25:29.748Z,2.40
2023-04-09T13:30:24.433Z,2.90
2023-04-09T13:35:16.200Z,3.37
2023-04-09T13:40:09.069Z,2.77
2023-04-09T13:45:00.909Z,3.00
2023-04-09T13:49:53.057Z,3.10
2023-04-09T13:54:44.763Z,2.40
2023-04-09T13:59:37.995Z,2.63
2023-04-09T14:04:30.276Z,2.60
2023-04-09T14:09:22.059Z,2.47
2023-04-09T14:14:13.733Z,2.57
2023-04-09T14:19:06.363Z,2.10
2023-04-09T14:23:58.066Z,2.43
2023-04-09T14:28:51.630Z,2.30
2023-04-09T14:33:43.647Z,2.37
2023-04-09T14:38:35.371Z,2.10
2023-04-09T14:43:28.134Z,2.42
2023-04-09T14:48:20.199Z,2.67
2023-04-09T14:53:16.641Z,2.23
2023-04-09T14:58:09.719Z,1.87
2023-04-09T15:03:02.297Z,2.03
2023-04-09T15:07:59.636Z,1.85
2023-04-09T15:12:51.773Z,1.60
2023-04-09T15:17:52.250Z,1.63
2023-04-09T15:22:44.001Z,2.15
2023-04-09T15:27:35.903Z,1.50
2023-04-09T15:32:29.748Z,1.80
2023-04-09T15:42:37.385Z,1.75
2023-04-09T15:57:47.955Z,1.48
2023-04-09T16:18:08.776Z,1.20
2023-04-09T16:33:29.520Z,1.30
2023-04-09T16:38:34.662Z,1.50
2023-04-09T16:43:34.765Z,1.40
2023-04-09T16:48:52.063Z,1.43
2023-04-09T16:53:44.031Z,1.25
2023-04-09T16:58:35.755Z,1.20
2023-04-09T17:03:28.050Z,1.40
2023-04-09T17:08:24.306Z,1.15
2023-04-09T17:13:16.307Z,1.10
2023-04-09T17:18:07.991Z,1.40
2023-04-09T17:22:59.892Z,1.40
2023-04-09T17:27:51.691Z,1.40
2023-04-09T17:53:27.519Z,1.60
2023-04-09T17:58:20.582Z,1.73
2023-04-09T18:29:10.126Z,3.10
2023-04-09T18:39:09.588Z,3.00
2023-04-09T18:44:02.234Z,2.97
2023-04-09T19:04:12.862Z,3.80
2023-04-09T19:09:05.725Z,3.40
2023-04-09T19:13:58.219Z,3.47
2023-04-09T19:18:50.487Z,3.43
2023-04-09T19:23:43.299Z,3.57
2023-04-09T19:28:35.776Z,4.00
2023-04-09T19:33:29.398Z,3.63
2023-04-09T19:38:26.038Z,4.27
2023-04-09T19:43:17.782Z,4.60
2023-04-09T19:48:11.942Z,4.03
2023-04-09T19:53:07.078Z,3.97
2023-04-09T19:57:59.175Z,5.00
2023-04-09T20:02:55.669Z,4.93
2023-04-09T20:07:51.008Z,4.77
2023-04-09T20:18:14.116Z,4.83
2023-04-09T20:23:15.727Z,5.03
2023-04-09T20:33:21.302Z,5.03
2023-04-09T20:38:21.665Z,5.50
2023-04-09T20:43:14.446Z,5.50
2023-04-09T20:48:07.812Z,6.07
2023-04-09T20:53:00.610Z,5.33
2023-04-09T20:57:56.408Z,5.53
2023-04-09T21:07:54.874Z,5.57
2023-04-09T21:12:46.884Z,5.63
2023-04-09T21:17:40.040Z,5.23
2023-04-09T21:22:33.637Z,5.53
2023-04-09T21:27:25.434Z,5.67
2023-04-09T21:32:31.336Z,6.37
2023-04-09T21:42:42.648Z,5.73
2023-04-09T21:47:44.806Z,5.33
2023-04-09T21:52:37.273Z,5.43
2023-04-09T21:57:36.882Z,5.60
2023-04-09T22:02:48.723Z,5.63
2023-04-09T22:07:46.125Z,5.43
2023-04-09T22:17:44.545Z,6.30
2023-04-09T22:22:40.320Z,6.13
2023-04-09T22:27:33.792Z,5.50
2023-04-09T22:32:27.164Z,5.43
2023-04-09T22:42:25.981Z,5.37
2023-04-09T22:57:32.226Z,5.87
2023-04-09T23:02:24.785Z,6.40
2023-04-09T23:07:17.527Z,7.17
2023-04-09T23:12:09.982Z,6.37
2023-04-09T23:17:08.008Z,6.53
2023-04-09T23:22:02.458Z,6.33
2023-04-09T23:26:56.399Z,5.93
2023-04-09T23:31:48.533Z,6.70
2023-04-09T23:36:41.340Z,6.60
2023-04-09T23:41:33.736Z,6.37
2023-04-09T23:46:29.273Z,6.37
2023-04-09T23:51:24.646Z,6.47
2023-04-09T23:56:17.354Z,6.10
